Time;durP1;ratioP1;P1;durP2;ratioP2;P2;SDS_P1;SDS_P2;PMS_P1;PMS_P2;Temp;Humidity;BMP_temperature;BMP_pressure;BME280_temperature;BME280_humidity;BME280_pressure;Samples;Min_cycle;Max_cycle;Signal;HPM_P1;HPM_P2
2021/07/08 00:00:38;;;;;;;0.00;0.00;;;14.90;99.90;;;;;;4970592;28;20202;-72
2021/07/08 00:03:05;;;;;;;0.00;0.00;;;15.00;99.90;;;;;;4970300;28;20194;-72
2021/07/08 00:05:36;;;;;;;0.00;0.00;;;15.00;99.90;;;;;;4970136;28;20238;-71
2021/07/08 00:08:03;;;;;;;0.00;0.00;;;15.10;99.90;;;;;;4970553;28;20210;-70
2021/07/08 00:10:36;;;;;;;0.00;0.00;;;15.10;99.90;;;;;;4970174;28;20589;-72
2021/07/08 00:13:03;;;;;;;0.00;0.00;;;15.20;99.90;;;;;;4950716;28;20227;-73
2021/07/08 00:15:30;;;;;;;0.00;0.00;;;15.20;99.90;;;;;;4951113;29;20199;-73
2021/07/08 00:17:58;;;;;;;0.00;0.00;;;15.20;99.90;;;;;;4948710;29;20865;-72
2021/07/08 00:20:27;;;;;;;0.00;0.00;;;15.30;99.90;;;;;;4949087;28;20191;-71
2021/07/08 00:22:54;;;;;;;0.00;0.00;;;15.30;99.90;;;;;;4950593;29;20281;-69
2021/07/08 00:25:24;;;;;;;0.00;0.00;;;15.30;99.90;;;;;;4950715;29;20407;-73
2021/07/08 00:27:53;;;;;;;0.00;0.00;;;15.30;99.90;;;;;;4950955;29;20336;-71
2021/07/08 00:30:20;;;;;;;0.00;0.00;;;15.40;99.90;;;;;;4950695;29;20616;-71
2021/07/08 00:32:48;;;;;;;0.00;0.00;;;15.40;99.90;;;;;;4965479;28;20206;-71
2021/07/08 00:35:15;;;;;;;0.00;0.00;;;15.40;99.90;;;;;;4968035;28;20735;-73
2021/07/08 00:37:42;;;;;;;0.00;0.00;;;15.40;99.90;;;;;;4969743;28;20223;-73
2021/07/08 00:40:11;;;;;;;0.00;0.00;;;15.30;99.90;;;;;;4969885;28;20256;-71
2021/07/08 00:42:39;;;;;;;0.00;0.00;;;15.30;99.90;;;;;;4970072;28;20199;-73
2021/07/08 00:45:09;;;;;;;0.00;0.00;;;15.30;99.90;;;;;;4964792;28;20195;-71
2021/07/08 00:47:37;;;;;;;0.00;0.00;;;15.20;99.90;;;;;;4949569;29;20195;-71
2021/07/08 00:50:05;;;;;;;0.00;0.00;;;15.10;99.90;;;;;;4961403;28;20206;-71
2021/07/08 00:52:32;;;;;;;0.00;0.00;;;15.10;99.90;;;;;;4970018;28;20202;-70
2021/07/08 00:54:59;;;;;;;0.00;0.00;;;15.00;99.90;;;;;;4969981;28;20202;-70
2021/07/08 00:57:26;;;;;;;0.00;0.00;;;15.00;99.90;;;;;;4969635;28;20691;-70
2021/07/08 00:59:54;;;;;;;0.00;0.00;;;14.90;99.90;;;;;;4968334;28;20198;-74
2021/07/08 01:02:24;;;;;;;0.00;0.00;;;14.90;99.90;;;;;;4969525;28;20206;-68
2021/07/08 01:04:51;;;;;;;0.00;0.00;;;14.80;99.90;;;;;;4969693;28;20315;-72
2021/07/08 01:07:22;;;;;;;0.00;0.00;;;14.80;99.90;;;;;;4969550;28;20803;-72
2021/07/08 01:09:50;;;;;;;0.00;0.00;;;14.80;99.90;;;;;;4964715;28;20287;-72
2021/07/08 01:12:17;;;;;;;0.00;0.00;;;14.80;99.90;;;;;;4965051;28;20190;-71
2021/07/08 01:14:44;;;;;;;0.00;0.00;;;14.70;99.90;;;;;;4949229;28;20916;-70
2021/07/08 01:17:12;;;;;;;0.00;0.00;;;14.70;99.90;;;;;;4948669;28;20294;-73
2021/07/08 01:19:42;;;;;;;0.00;0.00;;;14.60;99.90;;;;;;4950295;29;20700;-72
2021/07/08 01:22:10;;;;;;;0.00;0.00;;;14.60;99.90;;;;;;4950328;29;20691;-71
2021/07/08 01:24:37;;;;;;;0.00;0.00;;;14.60;99.90;;;;;;4950060;29;20203;-72
2021/07/08 01:27:05;;;;;;;0.00;0.00;;;14.60;99.90;;;;;;4949307;29;20904;-73
2021/07/08 01:29:32;;;;;;;0.00;0.00;;;14.60;99.90;;;;;;4950191;29;20875;-70
2021/07/08 01:31:59;;;;;;;0.00;0.00;;;14.60;99.90;;;;;;4963484;28;20247;-71
2021/07/08 01:34:27;;;;;;;0.00;0.00;;;14.60;99.90;;;;;;4969568;28;20205;-72
2021/07/08 01:36:55;;;;;;;0.00;0.00;;;14.60;99.90;;;;;;4966507;28;20230;-73
2021/07/08 01:39:23;;;;;;;0.00;0.00;;;14.60;99.90;;;;;;4969327;28;20203;-74
2021/07/08 01:41:51;;;;;;;0.00;0.00;;;14.60;99.90;;;;;;4969312;28;20198;-73
2021/07/08 01:44:18;;;;;;;0.00;0.00;;;14.60;99.90;;;;;;4969169;28;20198;-72
2021/07/08 01:46:45;;;;;;;0.00;0.00;;;14.60;99.90;;;;;;4947191;28;20557;-72
2021/07/08 01:49:12;;;;;;;0.40;0.40;;;14.70;99.90;;;;;;4950087;28;20207;-73
2021/07/08 01:51:39;;;;;;;0.00;0.00;;;14.70;99.90;;;;;;4973014;28;20213;-72
2021/07/08 01:54:09;;;;;;;0.00;0.00;;;14.80;99.90;;;;;;4972537;28;20209;-70
2021/07/08 01:56:38;;;;;;;0.00;0.00;;;14.80;99.90;;;;;;4955424;28;20202;-71
2021/07/08 01:59:05;;;;;;;0.00;0.00;;;14.90;99.90;;;;;;4953124;29;20235;-72
2021/07/08 02:01:32;;;;;;;0.00;0.00;;;14.90;99.90;;;;;;4953475;29;20258;-70
2021/07/08 02:03:59;;;;;;;0.00;0.00;;;15.00;99.90;;;;;;4962223;28;20209;-70
2021/07/08 02:06:26;;;;;;;0.00;0.00;;;15.00;99.90;;;;;;4972263;28;20238;-70
2021/07/08 02:08:53;;;;;;;0.00;0.00;;;15.00;99.90;;;;;;4970140;28;20223;-73
2021/07/08 02:11:20;;;;;;;0.00;0.00;;;15.10;99.90;;;;;;4972510;28;20292;-70
2021/07/08 02:13:49;;;;;;;0.00;0.00;;;15.10;99.90;;;;;;4958202;28;20199;-71
2021/07/08 02:16:16;;;;;;;0.00;0.00;;;15.20;99.90;;;;;;4951958;29;20889;-73
2021/07/08 02:18:44;;;;;;;0.00;0.00;;;15.20;99.90;;;;;;4952825;29;20282;-69
2021/07/08 02:21:12;;;;;;;0.10;0.10;;;15.20;99.90;;;;;;4951870;28;20203;-74
2021/07/08 02:23:39;;;;;;;0.00;0.00;;;15.30;99.90;;;;;;4968854;28;20203;-68
2021/07/08 02:26:07;;;;;;;0.00;0.00;;;15.30;99.90;;;;;;4972362;28;20284;-70
2021/07/08 02:28:35;;;;;;;0.00;0.00;;;15.30;99.90;;;;;;4965082;28;20665;-70
2021/07/08 02:31:04;;;;;;;0.00;0.00;;;15.30;99.90;;;;;;4972000;28;20217;-73
2021/07/08 02:33:31;;;;;;;0.00;0.00;;;15.30;99.90;;;;;;4969943;28;20202;-70
2021/07/08 02:35:58;;;;;;;0.00;0.00;;;15.40;99.90;;;;;;4969553;28;20237;-72
2021/07/08 02:38:25;;;;;;;0.00;0.00;;;15.40;99.90;;;;;;4971737;28;20609;-71
2021/07/08 02:40:52;;;;;;;0.00;0.00;;;15.40;99.90;;;;;;4969551;28;20785;-73
2021/07/08 02:43:19;;;;;;;0.00;0.00;;;15.30;99.90;;;;;;4964033;28;20199;-74
2021/07/08 02:45:46;;;;;;;0.00;0.00;;;15.30;99.90;;;;;;4951769;29;20206;-72
2021/07/08 02:48:16;;;;;;;0.00;0.00;;;15.20;99.90;;;;;;4952636;29;20211;-72
2021/07/08 02:50:45;;;;;;;0.00;0.00;;;15.10;99.90;;;;;;4952491;29;20750;-70
2021/07/08 02:53:13;;;;;;;0.00;0.00;;;15.10;99.90;;;;;;4951747;29;20231;-72
2021/07/08 02:55:41;;;;;;;0.00;0.00;;;15.00;99.90;;;;;;4967858;28;20604;-72
2021/07/08 02:58:08;;;;;;;0.00;0.00;;;14.90;99.90;;;;;;4971625;28;20226;-68
2021/07/08 03:00:35;;;;;;;0.00;0.00;;;14.80;99.90;;;;;;4971497;28;20746;-72
2021/07/08 03:03:02;;;;;;;0.00;0.00;;;14.70;99.90;;;;;;4970917;28;20625;-72
2021/07/08 03:05:30;;;;;;;0.00;0.00;;;14.60;99.90;;;;;;4970846;28;20242;-73
2021/07/08 03:07:58;;;;;;;0.00;0.00;;;14.60;99.90;;;;;;4971531;28;20206;-71
2021/07/08 03:10:27;;;;;;;0.00;0.00;;;14.50;99.90;;;;;;4951468;28;20226;-70
2021/07/08 03:12:55;;;;;;;0.00;0.00;;;14.40;99.90;;;;;;4957933;28;20699;-72
2021/07/08 03:15:23;;;;;;;0.00;0.00;;;14.30;99.90;;;;;;4951275;28;20207;-71
2021/07/08 03:17:51;;;;;;;0.00;0.00;;;14.30;99.90;;;;;;4951724;29;20226;-71
2021/07/08 03:20:20;;;;;;;0.00;0.00;;;14.20;99.90;;;;;;4951661;28;20675;-71
2021/07/08 03:22:50;;;;;;;1.03;1.03;;;14.20;99.90;;;;;;4949708;29;20206;-71
2021/07/08 03:25:18;;;;;;;0.00;0.00;;;14.10;99.90;;;;;;4950912;29;20199;-74
2021/07/08 03:27:45;;;;;;;0.00;0.00;;;14.10;99.90;;;;;;4970308;28;20261;-71
2021/07/08 03:30:15;;;;;;;0.00;0.00;;;14.00;99.90;;;;;;4971251;28;20256;-70
2021/07/08 03:32:43;;;;;;;0.07;0.07;;;14.00;99.90;;;;;;4967648;28;20246;-71
2021/07/08 03:35:11;;;;;;;0.00;0.00;;;14.00;99.90;;;;;;4970856;28;20656;-71
2021/07/08 03:37:38;;;;;;;0.00;0.00;;;14.00;99.90;;;;;;4970176;28;20256;-73
2021/07/08 03:40:08;;;;;;;0.00;0.00;;;14.00;99.90;;;;;;4951363;28;20206;-70
2021/07/08 03:42:36;;;;;;;0.00;0.00;;;14.00;99.90;;;;;;4966680;28;20211;-72
2021/07/08 03:45:04;;;;;;;0.00;0.00;;;13.90;99.90;;;;;;4951638;29;20203;-71
2021/07/08 03:47:30;;;;;;;0.00;0.00;;;13.90;99.90;;;;;;4951563;29;20261;-70
2021/07/08 03:49:57;;;;;;;0.00;0.00;;;13.90;99.90;;;;;;4950589;29;20281;-70
2021/07/08 03:52:24;;;;;;;0.00;0.00;;;13.90;99.90;;;;;;4950619;28;20199;-71
2021/07/08 03:54:51;;;;;;;0.00;0.00;;;13.90;99.90;;;;;;4970770;28;20790;-70
2021/07/08 03:57:20;;;;;;;0.00;0.00;;;13.90;99.90;;;;;;4970446;28;20664;-70
2021/07/08 03:59:46;;;;;;;0.00;0.00;;;13.90;99.90;;;;;;4970504;28;20339;-70
2021/07/08 04:02:14;;;;;;;0.00;0.00;;;13.90;99.90;;;;;;4960277;28;20207;-71
2021/07/08 04:04:41;;;;;;;0.07;0.07;;;13.90;99.90;;;;;;4951158;29;20203;-71
2021/07/08 04:07:09;;;;;;;0.00;0.00;;;14.00;99.90;;;;;;4950167;29;20780;-69
2021/07/08 04:09:36;;;;;;;0.00;0.00;;;14.00;99.90;;;;;;4950943;29;20715;-71
2021/07/08 04:12:04;;;;;;;0.00;0.00;;;14.00;99.90;;;;;;4950712;28;20207;-71
2021/07/08 04:14:33;;;;;;;0.00;0.00;;;14.10;99.90;;;;;;4950246;29;20203;-72
2021/07/08 04:16:59;;;;;;;0.00;0.00;;;14.10;99.90;;;;;;4951216;29;20199;-71
2021/07/08 04:19:27;;;;;;;0.00;0.00;;;14.10;99.90;;;;;;4950955;29;20227;-70
2021/07/08 04:21:53;;;;;;;0.00;0.00;;;14.20;99.90;;;;;;4951443;28;20207;-71
2021/07/08 04:24:20;;;;;;;0.00;0.00;;;14.20;99.90;;;;;;4958490;28;20215;-70
2021/07/08 04:26:47;;;;;;;0.00;0.00;;;14.20;99.90;;;;;;4970309;28;20195;-68
2021/07/08 04:29:14;;;;;;;0.00;0.00;;;14.20;99.90;;;;;;4969983;28;20202;-71
2021/07/08 04:31:43;;;;;;;0.00;0.00;;;14.20;99.90;;;;;;4970080;28;20198;-71
2021/07/08 04:34:10;;;;;;;0.00;0.00;;;14.20;99.90;;;;;;4950169;28;20681;-72
2021/07/08 04:36:37;;;;;;;0.00;0.00;;;14.30;99.90;;;;;;4950613;29;20199;-72
2021/07/08 04:39:04;;;;;;;0.00;0.00;;;14.30;99.90;;;;;;4950743;29;20289;-70
2021/07/08 04:41:31;;;;;;;0.00;0.00;;;14.40;99.90;;;;;;4957487;28;20203;-70
2021/07/08 04:43:59;;;;;;;0.00;0.00;;;14.50;99.90;;;;;;4949164;28;20251;-73
2021/07/08 04:46:26;;;;;;;0.00;0.00;;;14.60;99.90;;;;;;4967864;28;20202;-72
2021/07/08 04:48:56;;;;;;;0.00;0.00;;;14.60;99.90;;;;;;4969779;28;20238;-70
2021/07/08 04:51:23;;;;;;;0.00;0.00;;;14.70;99.90;;;;;;4969833;28;20670;-72
2021/07/08 04:53:50;;;;;;;0.00;0.00;;;14.80;99.90;;;;;;4950838;28;20618;-72
2021/07/08 04:56:17;;;;;;;0.00;0.00;;;14.90;99.90;;;;;;4951630;28;20265;-72
2021/07/08 04:58:44;;;;;;;0.00;0.00;;;15.10;99.90;;;;;;4969900;28;20230;-71
2021/07/08 05:01:11;;;;;;;0.00;0.00;;;15.20;99.90;;;;;;4956637;28;20661;-71
2021/07/08 05:03:38;;;;;;;0.00;0.00;;;15.30;99.90;;;;;;4950355;29;20332;-70
2021/07/08 05:06:06;;;;;;;0.00;0.00;;;15.40;99.90;;;;;;4950377;29;20238;-71
2021/07/08 05:08:33;;;;;;;0.00;0.00;;;15.60;99.90;;;;;;4950671;29;20266;-69
2021/07/08 05:11:00;;;;;;;0.00;0.00;;;15.70;99.90;;;;;;4950571;29;20718;-72
2021/07/08 05:13:27;;;;;;;0.00;0.00;;;15.80;99.90;;;;;;4948819;29;20686;-70
2021/07/08 05:15:54;;;;;;;0.00;0.00;;;16.00;99.90;;;;;;4950264;29;20203;-71
2021/07/08 05:18:21;;;;;;;0.00;0.00;;;16.10;99.90;;;;;;4950223;29;20575;-71
2021/07/08 05:20:50;;;;;;;0.00;0.00;;;16.30;99.90;;;;;;4950013;29;20775;-71
2021/07/08 05:23:24;;;;;;;0.00;0.00;;;16.40;99.90;;;;;;4950148;29;20203;-71
2021/07/08 05:25:51;;;;;;;0.00;0.00;;;16.50;99.90;;;;;;4952952;28;20194;-73
2021/07/08 05:28:18;;;;;;;0.00;0.00;;;16.60;99.90;;;;;;4969270;28;20202;-72
2021/07/08 05:30:45;;;;;;;0.00;0.00;;;16.70;99.90;;;;;;4970967;28;20202;-71
2021/07/08 05:33:13;;;;;;;0.00;0.00;;;16.80;99.90;;;;;;4973568;28;20202;-70
2021/07/08 05:35:40;;;;;;;0.00;0.00;;;16.90;99.90;;;;;;4961190;28;20262;-71
2021/07/08 05:38:07;;;;;;;0.00;0.00;;;17.10;99.90;;;;;;4953994;29;20648;-69
2021/07/08 05:40:36;;;;;;;0.00;0.00;;;17.30;99.90;;;;;;4969017;28;20220;-71
2021/07/08 05:43:03;;;;;;;0.00;0.00;;;17.50;99.90;;;;;;4963473;28;20207;-72
2021/07/08 05:45:30;;;;;;;0.00;0.00;;;17.60;99.90;;;;;;4953832;29;20230;-72
2021/07/08 05:47:57;;;;;;;0.00;0.00;;;17.60;99.90;;;;;;4953729;29;20600;-73
2021/07/08 05:50:24;;;;;;;0.00;0.00;;;17.70;99.90;;;;;;4965832;28;20202;-73
2021/07/08 05:52:51;;;;;;;0.00;0.00;;;17.70;99.90;;;;;;4963980;28;20273;-72
2021/07/08 05:55:18;;;;;;;0.00;0.00;;;17.90;99.90;;;;;;4953388;29;20242;-72
2021/07/08 05:57:50;;;;;;;0.00;0.00;;;17.90;99.90;;;;;;4953299;28;20199;-72
2021/07/08 06:00:19;;;;;;;0.00;0.00;;;18.10;99.90;;;;;;4951698;29;20511;-68
2021/07/08 06:02:47;;;;;;;0.00;0.00;;;18.30;99.90;;;;;;4953535;29;20195;-72
2021/07/08 06:05:14;;;;;;;0.00;0.00;;;18.40;99.90;;;;;;4951272;28;20263;-71
2021/07/08 06:07:41;;;;;;;0.10;0.10;;;18.60;99.90;;;;;;4951656;29;20199;-73
2021/07/08 06:10:10;;;;;;;0.00;0.00;;;18.80;99.90;;;;;;4957461;28;20269;-73
2021/07/08 06:12:37;;;;;;;0.10;0.10;;;19.00;99.90;;;;;;4966407;28;20250;-73
2021/07/08 06:15:07;;;;;;;0.13;0.13;;;19.20;99.90;;;;;;4953376;29;20206;-69
2021/07/08 06:17:34;;;;;;;0.00;0.00;;;19.30;99.90;;;;;;4953019;29;21013;-73
2021/07/08 06:20:01;;;;;;;0.00;0.00;;;19.40;99.90;;;;;;4952518;29;20226;-74
2021/07/08 06:22:28;;;;;;;0.00;0.00;;;19.60;99.90;;;;;;4952117;29;20251;-72
2021/07/08 06:24:55;;;;;;;0.00;0.00;;;19.60;99.90;;;;;;4956022;28;20290;-70
2021/07/08 06:27:22;;;;;;;0.00;0.00;;;19.80;99.90;;;;;;4970519;28;20261;-73
2021/07/08 06:29:49;;;;;;;0.00;0.00;;;19.90;99.90;;;;;;4933610;29;20251;-74
2021/07/08 06:32:18;;;;;;;0.00;0.00;;;20.10;99.90;;;;;;4933969;29;20203;-72
2021/07/08 06:34:45;;;;;;;0.00;0.00;;;20.20;99.90;;;;;;4935651;29;20340;-72
2021/07/08 06:37:13;;;;;;;0.00;0.00;;;20.50;99.90;;;;;;4950303;28;20195;-70
2021/07/08 06:39:39;;;;;;;0.00;0.00;;;20.60;99.90;;;;;;4952035;29;20227;-73
2021/07/08 06:42:06;;;;;;;0.00;0.00;;;20.70;99.90;;;;;;4948430;28;20202;-71
2021/07/08 06:44:34;;;;;;;0.00;0.00;;;20.90;99.90;;;;;;4952781;29;20254;-74
2021/07/08 06:47:02;;;;;;;0.00;0.00;;;21.00;99.90;;;;;;4952243;29;20240;-73
2021/07/08 06:49:34;;;;;;;0.00;0.00;;;21.20;99.90;;;;;;4952815;29;20243;-74
2021/07/08 06:52:01;;;;;;;0.00;0.00;;;21.40;99.90;;;;;;4952603;29;20195;-73
2021/07/08 06:54:28;;;;;;;0.00;0.00;;;21.50;99.90;;;;;;4942107;28;20204;-71
2021/07/08 06:56:55;;;;;;;0.00;0.00;;;21.70;99.90;;;;;;4961761;28;20210;-74
2021/07/08 06:59:22;;;;;;;0.00;0.00;;;21.70;99.90;;;;;;4971844;28;20225;-74
2021/07/08 07:01:49;;;;;;;0.00;0.00;;;21.80;99.90;;;;;;4943194;28;20196;-70
2021/07/08 07:04:16;;;;;;;0.17;0.17;;;21.90;99.90;;;;;;4938157;29;20286;-71
2021/07/08 07:06:44;;;;;;;0.00;0.00;;;22.00;99.90;;;;;;4948647;28;20289;-72
2021/07/08 07:09:11;;;;;;;0.00;0.00;;;21.90;99.90;;;;;;4964684;28;20237;-74
2021/07/08 07:11:38;;;;;;;0.00;0.00;;;21.90;99.90;;;;;;4971577;28;20201;-73
2021/07/08 07:14:05;;;;;;;0.00;0.00;;;22.00;99.90;;;;;;4952496;28;20257;-68
2021/07/08 07:16:32;;;;;;;0.00;0.00;;;22.00;99.90;;;;;;4952327;29;20199;-74
2021/07/08 07:18:59;;;;;;;0.00;0.00;;;22.10;99.90;;;;;;4950438;28;20696;-75
2021/07/08 07:21:26;;;;;;;0.00;0.00;;;22.10;99.90;;;;;;4952097;29;20207;-71
2021/07/08 07:23:54;;;;;;;0.00;0.00;;;22.30;99.90;;;;;;4951850;29;20203;-72
2021/07/08 07:26:22;;;;;;;0.00;0.00;;;22.20;99.90;;;;;;4961831;28;20257;-72
2021/07/08 07:28:49;;;;;;;0.00;0.00;;;22.40;99.90;;;;;;4971399;28;20229;-71
2021/07/08 07:31:16;;;;;;;0.00;0.00;;;22.40;99.90;;;;;;4971001;28;20692;-71
2021/07/08 07:33:43;;;;;;;0.00;0.00;;;22.40;99.90;;;;;;4971354;28;20202;-71
2021/07/08 07:36:11;;;;;;;0.00;0.00;;;22.50;99.90;;;;;;4949233;28;20207;-72
2021/07/08 07:38:39;;;;;;;0.00;0.00;;;22.50;99.90;;;;;;4951121;28;20285;-67
2021/07/08 07:41:08;;;;;;;0.00;0.00;;;22.50;99.90;;;;;;4942322;28;20235;-67
2021/07/08 07:43:36;;;;;;;0.00;0.00;;;22.40;99.90;;;;;;4941888;28;20292;-73
2021/07/08 07:46:03;;;;;;;0.00;0.00;;;22.50;99.90;;;;;;4939721;29;20566;-70
2021/07/08 07:48:30;;;;;;;0.00;0.00;;;22.70;99.90;;;;;;4936499;28;20680;-74
2021/07/08 07:50:57;;;;;;;0.00;0.00;;;22.90;99.90;;;;;;4935287;29;20210;-73
2021/07/08 07:53:24;;;;;;;0.00;0.00;;;23.00;99.90;;;;;;4939804;29;20203;-68
2021/07/08 07:55:51;;;;;;;0.00;0.00;;;23.00;99.90;;;;;;4944415;28;20210;-74
2021/07/08 07:58:19;;;;;;;0.00;0.00;;;23.10;99.90;;;;;;4970518;28;20730;-72
2021/07/08 08:00:47;;;;;;;0.00;0.00;;;23.20;99.90;;;;;;4957858;28;20266;-71
2021/07/08 08:03:14;;;;;;;0.00;0.00;;;23.30;99.90;;;;;;4941836;29;20207;-72
2021/07/08 08:05:43;;;;;;;0.00;0.00;;;23.40;99.90;;;;;;4940718;29;20629;-71
2021/07/08 08:11:00;;;;;;;0.00;0.00;;;23.60;99.90;;;;;;4921934;28;20208;-73
2021/07/08 08:13:30;;;;;;;0.00;0.00;;;23.70;99.90;;;;;;4941358;28;20203;-69
2021/07/08 08:15:57;;;;;;;0.00;0.00;;;23.70;99.90;;;;;;4946455;29;20202;-73
2021/07/08 08:18:25;;;;;;;0.15;0.15;;;23.80;99.90;;;;;;4940539;29;20739;-71
2021/07/08 08:20:53;;;;;;;0.00;0.00;;;23.90;99.90;;;;;;4961951;28;20321;-71
2021/07/08 08:23:20;;;;;;;0.00;0.00;;;23.90;99.90;;;;;;4950252;28;20785;-68
2021/07/08 08:25:47;;;;;;;0.00;0.00;;;24.00;99.90;;;;;;4943104;28;20195;-71
2021/07/08 08:28:14;;;;;;;0.00;0.00;;;24.00;99.90;;;;;;4942167;29;20203;-70
2021/07/08 08:30:44;;;;;;;0.00;0.00;;;24.00;99.90;;;;;;4938490;28;20203;-71
2021/07/08 08:33:12;;;;;;;0.00;0.00;;;24.10;99.90;;;;;;4937647;29;20323;-70
2021/07/08 08:35:39;;;;;;;0.00;0.00;;;24.10;99.90;;;;;;4934942;29;20269;-71
2021/07/08 08:38:07;;;;;;;0.00;0.00;;;24.20;99.90;;;;;;4940437;29;20206;-72
2021/07/08 08:40:34;;;;;;;0.00;0.00;;;24.30;99.90;;;;;;4943199;28;20301;-67
2021/07/08 08:43:01;;;;;;;0.00;0.00;;;24.40;99.90;;;;;;4950123;28;20233;-73
2021/07/08 08:45:29;;;;;;;0.00;0.00;;;24.50;99.90;;;;;;4950863;28;20207;-67
2021/07/08 08:48:01;;;;;;;0.00;0.00;;;24.60;99.90;;;;;;4970176;28;20317;-67
2021/07/08 08:50:28;;;;;;;0.00;0.00;;;24.80;99.90;;;;;;4967450;28;20202;-74
2021/07/08 08:52:55;;;;;;;0.00;0.00;;;24.90;99.90;;;;;;4967088;28;20538;-76
2021/07/08 08:55:23;;;;;;;0.00;0.00;;;24.80;99.90;;;;;;4948281;28;20206;-71
2021/07/08 08:57:50;;;;;;;0.00;0.00;;;24.70;99.90;;;;;;4943665;28;20250;-70
2021/07/08 09:00:40;;;;;;;0.00;0.00;;;24.80;99.90;;;;;;4946581;28;20233;-71
2021/07/08 09:03:11;;;;;;;0.03;0.03;;;24.70;99.90;;;;;;4947031;29;20759;-70
2021/07/08 09:05:39;;;;;;;0.00;0.00;;;24.80;99.90;;;;;;4951167;29;20237;-72
2021/07/08 09:08:15;;;;;;;0.00;0.00;;;24.90;99.90;;;;;;4954348;28;20198;-71
2021/07/08 09:10:42;;;;;;;0.00;0.00;;;24.80;99.90;;;;;;4953180;29;20282;-70
2021/07/08 09:13:09;;;;;;;0.00;0.00;;;24.70;99.90;;;;;;4945363;28;20298;-75
2021/07/08 09:15:37;;;;;;;0.00;0.00;;;24.70;99.90;;;;;;4952147;29;20198;-72
2021/07/08 09:18:04;;;;;;;0.00;0.00;;;24.60;99.90;;;;;;4951113;28;20258;-75
2021/07/08 09:20:35;;;;;;;0.00;0.00;;;24.70;99.90;;;;;;4950470;29;20223;-75
2021/07/08 09:23:12;;;;;;;0.00;0.00;;;24.60;99.90;;;;;;4948759;29;20206;-74
2021/07/08 09:25:40;;;;;;;0.00;0.00;;;24.30;99.90;;;;;;4946453;29;20195;-74
2021/07/08 09:28:15;;;;;;;0.15;0.15;;;24.20;99.90;;;;;;4942482;29;20208;-71
2021/07/08 09:30:43;;;;;;;0.00;0.00;;;24.60;99.90;;;;;;4942233;29;20195;-70
2021/07/08 09:33:43;;;;;;;0.00;0.00;;;24.90;99.90;;;;;;4940551;29;20858;-73
2021/07/08 09:36:14;;;;;;;0.00;0.00;;;25.00;99.90;;;;;;4851785;29;20206;-73
2021/07/08 09:38:43;;;;;;;0.00;0.00;;;25.30;99.90;;;;;;4845842;29;20206;-75
2021/07/08 09:41:17;;;;;;;0.00;0.00;;;25.60;99.90;;;;;;4848818;29;20234;-74
2021/07/08 09:43:44;;;;;;;0.00;0.00;;;25.50;99.90;;;;;;4848632;29;20195;-73
2021/07/08 09:46:13;;;;;;;0.00;0.00;;;25.50;99.90;;;;;;4845788;29;20271;-71
2021/07/08 09:48:40;;;;;;;0.00;0.00;;;25.80;99.90;;;;;;4846756;29;20207;-72
2021/07/08 09:51:08;;;;;;;0.00;0.00;;;26.20;99.90;;;;;;4845868;29;20203;-70
2021/07/08 09:53:51;;;;;;;0.08;0.00;;;26.40;99.90;;;;;;4854633;29;20326;-75
2021/07/08 09:56:38;;;;;;;0.00;0.00;;;26.70;99.90;;;;;;4859711;29;20273;-70
2021/07/08 09:59:06;;;;;;;0.00;0.00;;;26.80;99.90;;;;;;4860280;29;20209;-70
2021/07/08 10:01:33;;;;;;;0.20;0.20;;;26.80;99.90;;;;;;4871322;29;20229;-76
2021/07/08 10:04:00;;;;;;;0.00;0.00;;;27.00;99.90;;;;;;4875262;29;20225;-75
2021/07/08 10:06:28;;;;;;;0.00;0.00;;;26.90;99.90;;;;;;4892268;28;20285;-70
2021/07/08 10:11:48;;;;;;;0.00;0.00;;;27.30;99.90;;;;;;4949102;28;20301;-74
2021/07/08 10:14:17;;;;;;;0.00;0.00;;;27.50;99.90;;;;;;4959939;28;20198;-68
2021/07/08 10:16:48;;;;;;;0.00;0.00;;;27.50;99.90;;;;;;4965176;28;20198;-69
2021/07/08 10:19:18;;;;;;;0.00;0.00;;;26.80;99.90;;;;;;4966459;28;20744;-69
2021/07/08 10:21:47;;;;;;;0.30;0.30;;;26.00;99.90;;;;;;4948702;28;20274;-74
2021/07/08 10:24:17;;;;;;;0.00;0.00;;;25.30;99.90;;;;;;4953174;28;20294;-74
2021/07/08 10:26:45;;;;;;;0.00;0.00;;;25.30;99.90;;;;;;4946857;29;20262;-70
2021/07/08 10:29:13;;;;;;;0.00;0.00;;;25.80;99.90;;;;;;4947746;28;20661;-71
2021/07/08 10:31:41;;;;;;;0.03;0.03;;;26.30;99.90;;;;;;4947300;29;20313;-72
2021/07/08 10:34:10;;;;;;;0.00;0.00;;;26.60;99.90;;;;;;4947508;28;20211;-74
2021/07/08 10:36:40;;;;;;;0.00;0.00;;;26.80;99.90;;;;;;4950702;29;20207;-72
2021/07/08 10:39:09;;;;;;;0.00;0.00;;;26.50;99.90;;;;;;4953914;28;20211;-75
2021/07/08 10:41:57;;;;;;;0.00;0.00;;;26.70;99.90;;;;;;4950073;28;20237;-77
2021/07/08 10:44:48;;;;;;;0.00;0.00;;;27.20;99.90;;;;;;4948959;28;20207;-74
2021/07/08 10:47:35;;;;;;;0.00;0.00;;;27.30;99.90;;;;;;4946699;29;20257;-71
2021/07/08 10:50:02;;;;;;;0.00;0.00;;;27.00;99.90;;;;;;4944009;28;20241;-74
2021/07/08 10:52:53;;;;;;;0.00;0.00;;;26.80;99.90;;;;;;4941522;29;20222;-71
2021/07/08 10:55:38;;;;;;;0.00;0.00;;;27.00;99.90;;;;;;4918409;29;20729;-72
2021/07/08 10:58:08;;;;;;;0.00;0.00;;;27.20;99.90;;;;;;4946996;29;20199;-74
2021/07/08 11:00:47;;;;;;;0.00;0.00;;;27.20;99.90;;;;;;4952415;29;20592;-72
2021/07/08 11:03:36;;;;;;;0.00;0.00;;;27.40;99.90;;;;;;4948688;29;20213;-66
2021/07/08 11:06:12;;;;;;;0.00;0.00;;;27.60;99.90;;;;;;4943361;29;20431;-73
2021/07/08 11:08:59;;;;;;;0.00;0.00;;;27.70;99.90;;;;;;4951235;29;20202;-72
2021/07/08 11:12:01;;;;;;;0.00;0.00;;;27.10;99.90;;;;;;4942072;29;20749;-67
2021/07/08 11:14:40;;;;;;;0.08;0.08;;;26.30;99.90;;;;;;4949290;29;20217;-72
2021/07/08 11:17:20;;;;;;;0.00;0.00;;;25.80;99.90;;;;;;4944747;29;20233;-71
2021/07/08 11:19:49;;;;;;;0.00;0.00;;;25.60;99.90;;;;;;4946410;29;20219;-72
2021/07/08 11:22:37;;;;;;;0.00;0.00;;;25.80;99.90;;;;;;4943853;28;20287;-77
2021/07/08 11:25:07;;;;;;;0.00;0.00;;;25.90;99.90;;;;;;4951233;29;20282;-75
2021/07/08 11:27:45;;;;;;;0.00;0.00;;;26.10;99.90;;;;;;4944244;29;20207;-69
2021/07/08 11:30:29;;;;;;;0.00;0.00;;;26.40;99.90;;;;;;4943169;29;20210;-74
2021/07/08 11:33:01;;;;;;;0.00;0.00;;;26.40;99.90;;;;;;4940626;29;21128;-68
2021/07/08 11:35:31;;;;;;;0.00;0.00;;;26.20;99.90;;;;;;4947863;28;20334;-68
2021/07/08 11:38:01;;;;;;;0.20;0.20;;;25.80;99.90;;;;;;4943568;29;20202;-72
2021/07/08 11:40:33;;;;;;;0.00;0.00;;;25.60;99.90;;;;;;4943380;29;20227;-70
2021/07/08 11:43:12;;;;;;;0.00;0.00;;;26.10;99.90;;;;;;4951979;29;20198;-70
2021/07/08 11:45:41;;;;;;;0.00;0.00;;;26.60;99.90;;;;;;4951034;29;20712;-73
2021/07/08 11:48:08;;;;;;;0.00;0.00;;;27.20;99.90;;;;;;4940625;28;20206;-71
2021/07/08 11:50:36;;;;;;;0.00;0.00;;;27.50;99.90;;;;;;4971335;28;20221;-75
2021/07/08 11:53:09;;;;;;;0.00;0.00;;;27.70;99.90;;;;;;4958860;28;20675;-71
2021/07/08 11:55:37;;;;;;;0.00;0.00;;;27.90;99.90;;;;;;4946588;28;20838;-70
2021/07/08 11:58:04;;;;;;;0.00;0.00;;;27.70;99.90;;;;;;4957903;28;20258;-69
2021/07/08 12:00:37;;;;;;;0.10;0.10;;;27.70;99.90;;;;;;4956027;28;20693;-71
2021/07/08 12:03:22;;;;;;;0.00;0.00;;;27.10;99.90;;;;;;4952905;28;20203;-70
2021/07/08 12:05:49;;;;;;;0.00;0.00;;;26.60;99.90;;;;;;4955462;28;20226;-73
2021/07/08 12:08:24;;;;;;;0.00;0.00;;;26.80;99.90;;;;;;4951364;29;20210;-72
2021/07/08 12:10:57;;;;;;;0.00;0.00;;;27.40;99.90;;;;;;4948990;29;20734;-69
2021/07/08 12:13:24;;;;;;;0.00;0.00;;;27.90;99.90;;;;;;4938265;29;21341;-73
2021/07/08 12:15:51;;;;;;;0.52;0.52;;;28.30;99.90;;;;;;4941124;29;20270;-72
2021/07/08 12:18:20;;;;;;;0.00;0.00;;;28.50;99.90;;;;;;4940391;29;20251;-72
2021/07/08 12:20:48;;;;;;;0.70;0.25;;;28.40;99.90;;;;;;4938503;28;20281;-72
2021/07/08 12:23:16;;;;;;;0.00;0.00;;;27.80;99.90;;;;;;4940582;28;20767;-74
2021/07/08 12:26:20;;;;;;;0.00;0.00;;;27.00;99.90;;;;;;4941380;29;20195;-73
2021/07/08 12:28:47;;;;;;;0.00;0.00;;;26.70;99.90;;;;;;4943059;29;20257;-71
2021/07/08 12:31:14;;;;;;;0.10;0.10;;;27.20;99.90;;;;;;4940176;29;20269;-72
2021/07/08 12:33:55;;;;;;;0.20;0.20;;;27.50;99.90;;;;;;4944837;28;20838;-70
2021/07/08 12:36:22;;;;;;;0.00;0.00;;;27.10;99.90;;;;;;4937379;28;20776;-70
2021/07/08 12:38:50;;;;;;;0.00;0.00;;;26.40;99.90;;;;;;4940419;29;20199;-68
2021/07/08 12:41:17;;;;;;;0.00;0.00;;;26.10;99.90;;;;;;4941172;29;20234;-70
2021/07/08 12:43:44;;;;;;;0.00;0.00;;;26.20;99.90;;;;;;4940712;29;20207;-70
2021/07/08 12:46:11;;;;;;;0.00;0.00;;;26.50;99.90;;;;;;4942043;29;20203;-72
2021/07/08 12:48:38;;;;;;;0.00;0.00;;;27.00;99.90;;;;;;4939078;29;20215;-70
2021/07/08 12:51:07;;;;;;;0.03;0.03;;;27.30;99.90;;;;;;4940686;29;20274;-67
2021/07/08 12:53:34;;;;;;;0.00;0.00;;;27.40;99.90;;;;;;4939900;29;20207;-70
2021/07/08 12:56:10;;;;;;;0.00;0.00;;;27.10;99.90;;;;;;4942987;29;20284;-73
2021/07/08 12:58:37;;;;;;;0.00;0.00;;;26.90;99.90;;;;;;4940127;29;20211;-73
2021/07/08 13:01:05;;;;;;;0.00;0.00;;;26.60;99.90;;;;;;4946139;28;20222;-71
2021/07/08 13:03:35;;;;;;;0.00;0.00;;;26.40;99.90;;;;;;4962186;28;20609;-70